sensor_id;sensor_type;location;lat;lon;timestamp;temperature;humidity
5850;DHT22;2951;47.712;9.400;2023-12-29T00:00:38;2.20;99.90
5850;DHT22;2951;47.712;9.400;2023-12-29T00:03:06;2.20;99.90
5850;DHT22;2951;47.712;9.400;2023-12-29T00:05:32;2.20;99.90
5850;DHT22;2951;47.712;9.400;2023-12-29T00:08:00;2.30;99.90
5850;DHT22;2951;47.712;9.400;2023-12-29T00:10:49;2.30;99.90
5850;DHT22;2951;47.712;9.400;2023-12-29T00:13:17;2.30;99.90
5850;DHT22;2951;47.712;9.400;2023-12-29T00:15:52;2.30;99.90
5850;DHT22;2951;47.712;9.400;2023-12-29T00:21:17;2.50;99.90
5850;DHT22;2951;47.712;9.400;2023-12-29T00:23:46;2.50;99.90
5850;DHT22;2951;47.712;9.400;2023-12-29T00:26:13;2.60;99.90
5850;DHT22;2951;47.712;9.400;2023-12-29T00:28:42;2.70;99.90
5850;DHT22;2951;47.712;9.400;2023-12-29T00:31:13;2.80;99.90
5850;DHT22;2951;47.712;9.400;2023-12-29T00:33:41;2.80;99.90
5850;DHT22;2951;47.712;9.400;2023-12-29T00:36:08;2.90;99.90
5850;DHT22;2951;47.712;9.400;2023-12-29T00:38:35;2.90;99.90
5850;DHT22;2951;47.712;9.400;2023-12-29T00:41:01;3.00;99.90
5850;DHT22;2951;47.712;9.400;2023-12-29T00:43:28;3.00;99.90
5850;DHT22;2951;47.712;9.400;2023-12-29T00:45:56;3.10;99.90
5850;DHT22;2951;47.712;9.400;2023-12-29T00:48:22;3.10;99.90
5850;DHT22;2951;47.712;9.400;2023-12-29T00:50:49;3.00;99.90
5850;DHT22;2951;47.712;9.400;2023-12-29T00:53:18;2.90;99.90
5850;DHT22;2951;47.712;9.400;2023-12-29T00:55:45;2.90;99.90
5850;DHT22;2951;47.712;9.400;2023-12-29T00:58:12;3.00;99.90
5850;DHT22;2951;47.712;9.400;2023-12-29T01:00:39;3.10;99.90
5850;DHT22;2951;47.712;9.400;2023-12-29T01:03:06;3.10;99.90
5850;DHT22;2951;47.712;9.400;2023-12-29T01:05:33;3.30;99.90
5850;DHT22;2951;47.712;9.400;2023-12-29T01:08:00;3.40;99.90
5850;DHT22;2951;47.712;9.400;2023-12-29T01:10:29;3.50;99.90
5850;DHT22;2951;47.712;9.400;2023-12-29T01:12:56;3.50;99.90
5850;DHT22;2951;47.712;9.400;2023-12-29T01:15:24;3.50;99.90
5850;DHT22;2951;47.712;9.400;2023-12-29T01:17:51;3.60;99.90
5850;DHT22;2951;47.712;9.400;2023-12-29T01:20:18;3.60;99.90
5850;DHT22;2951;47.712;9.400;2023-12-29T01:22:45;3.50;99.90
5850;DHT22;2951;47.712;9.400;2023-12-29T01:25:11;3.40;99.90
5850;DHT22;2951;47.712;9.400;2023-12-29T01:27:38;3.20;99.90
5850;DHT22;2951;47.712;9.400;2023-12-29T01:30:06;3.10;99.90
5850;DHT22;2951;47.712;9.400;2023-12-29T01:32:33;3.20;99.90
5850;DHT22;2951;47.712;9.400;2023-12-29T01:34:59;3.20;99.90
5850;DHT22;2951;47.712;9.400;2023-12-29T01:37:26;3.20;99.90
5850;DHT22;2951;47.712;9.400;2023-12-29T01:39:53;3.20;99.90
5850;DHT22;2951;47.712;9.400;2023-12-29T01:42:20;3.20;99.90
5850;DHT22;2951;47.712;9.400;2023-12-29T01:44:47;3.10;99.90
5850;DHT22;2951;47.712;9.400;2023-12-29T01:47:18;3.00;99.90
5850;DHT22;2951;47.712;9.400;2023-12-29T01:49:45;3.00;99.90
5850;DHT22;2951;47.712;9.400;2023-12-29T01:52:17;3.00;99.90
5850;DHT22;2951;47.712;9.400;2023-12-29T01:54:45;3.00;99.90
5850;DHT22;2951;47.712;9.400;2023-12-29T01:57:12;2.90;99.90
5850;DHT22;2951;47.712;9.400;2023-12-29T01:59:40;2.90;99.90
5850;DHT22;2951;47.712;9.400;2023-12-29T02:02:06;2.80;99.90
5850;DHT22;2951;47.712;9.400;2023-12-29T02:04:34;2.80;99.90
5850;DHT22;2951;47.712;9.400;2023-12-29T02:07:01;2.70;99.90
5850;DHT22;2951;47.712;9.400;2023-12-29T02:09:29;2.60;99.90
5850;DHT22;2951;47.712;9.400;2023-12-29T02:11:56;2.60;99.90
5850;DHT22;2951;47.712;9.400;2023-12-29T02:14:23;2.50;99.90
5850;DHT22;2951;47.712;9.400;2023-12-29T02:17:37;2.50;99.90
5850;DHT22;2951;47.712;9.400;2023-12-29T02:19:41;2.40;99.90
5850;DHT22;2951;47.712;9.400;2023-12-29T02:22:10;2.30;99.90
5850;DHT22;2951;47.712;9.400;2023-12-29T02:24:38;2.30;99.90
5850;DHT22;2951;47.712;9.400;2023-12-29T02:29:36;2.30;99.90
5850;DHT22;2951;47.712;9.400;2023-12-29T02:32:04;2.30;99.90
5850;DHT22;2951;47.712;9.400;2023-12-29T02:34:33;2.20;99.90
5850;DHT22;2951;47.712;9.400;2023-12-29T02:37:00;2.20;99.90
5850;DHT22;2951;47.712;9.400;2023-12-29T02:39:28;2.20;99.90
5850;DHT22;2951;47.712;9.400;2023-12-29T02:41:55;2.20;99.90
5850;DHT22;2951;47.712;9.400;2023-12-29T02:44:21;2.20;99.90
5850;DHT22;2951;47.712;9.400;2023-12-29T02:46:48;2.20;99.90
5850;DHT22;2951;47.712;9.400;2023-12-29T02:49:15;2.20;99.90
5850;DHT22;2951;47.712;9.400;2023-12-29T02:51:42;2.10;99.90
5850;DHT22;2951;47.712;9.400;2023-12-29T02:54:12;2.10;99.90
5850;DHT22;2951;47.712;9.400;2023-12-29T02:56:38;2.10;99.90
5850;DHT22;2951;47.712;9.400;2023-12-29T02:59:05;2.10;99.90
5850;DHT22;2951;47.712;9.400;2023-12-29T03:01:32;2.10;99.90
5850;DHT22;2951;47.712;9.400;2023-12-29T03:04:00;2.10;99.90
5850;DHT22;2951;47.712;9.400;2023-12-29T03:06:27;2.00;99.90
5850;DHT22;2951;47.712;9.400;2023-12-29T03:08:57;2.00;99.90
5850;DHT22;2951;47.712;9.400;2023-12-29T03:11:24;1.90;99.90
5850;DHT22;2951;47.712;9.400;2023-12-29T03:13:51;1.90;99.90
5850;DHT22;2951;47.712;9.400;2023-12-29T03:16:17;2.00;99.90
5850;DHT22;2951;47.712;9.400;2023-12-29T03:18:46;2.00;99.90
5850;DHT22;2951;47.712;9.400;2023-12-29T03:21:14;2.10;99.90
5850;DHT22;2951;47.712;9.400;2023-12-29T03:23:40;2.20;99.90
5850;DHT22;2951;47.712;9.400;2023-12-29T03:26:08;2.30;99.90
5850;DHT22;2951;47.712;9.400;2023-12-29T03:28:34;2.30;99.90
5850;DHT22;2951;47.712;9.400;2023-12-29T03:31:01;2.20;99.90
5850;DHT22;2951;47.712;9.400;2023-12-29T03:33:28;2.20;99.90
5850;DHT22;2951;47.712;9.400;2023-12-29T03:35:55;2.30;99.90
5850;DHT22;2951;47.712;9.400;2023-12-29T03:38:22;2.30;99.90
5850;DHT22;2951;47.712;9.400;2023-12-29T03:40:50;2.40;99.90
5850;DHT22;2951;47.712;9.400;2023-12-29T03:43:16;2.30;99.90
5850;DHT22;2951;47.712;9.400;2023-12-29T03:45:43;2.40;99.90
5850;DHT22;2951;47.712;9.400;2023-12-29T03:48:10;2.50;99.90
5850;DHT22;2951;47.712;9.400;2023-12-29T03:50:36;2.60;99.90
5850;DHT22;2951;47.712;9.400;2023-12-29T03:53:03;2.60;99.90
5850;DHT22;2951;47.712;9.400;2023-12-29T03:55:30;2.70;99.90
5850;DHT22;2951;47.712;9.400;2023-12-29T03:57:57;2.70;99.90
5850;DHT22;2951;47.712;9.400;2023-12-29T04:00:24;2.70;99.90
5850;DHT22;2951;47.712;9.400;2023-12-29T04:02:51;2.60;99.90
5850;DHT22;2951;47.712;9.400;2023-12-29T04:05:18;2.60;99.90
5850;DHT22;2951;47.712;9.400;2023-12-29T04:07:44;2.60;99.90
5850;DHT22;2951;47.712;9.400;2023-12-29T04:10:11;2.60;99.90
5850;DHT22;2951;47.712;9.400;2023-12-29T04:12:38;2.70;99.90
5850;DHT22;2951;47.712;9.400;2023-12-29T04:15:05;2.60;99.90
5850;DHT22;2951;47.712;9.400;2023-12-29T04:17:32;2.60;99.90
5850;DHT22;2951;47.712;9.400;2023-12-29T04:19:59;2.60;99.90
5850;DHT22;2951;47.712;9.400;2023-12-29T04:22:32;2.70;99.90
5850;DHT22;2951;47.712;9.400;2023-12-29T04:25:01;2.60;99.90
5850;DHT22;2951;47.712;9.400;2023-12-29T04:27:28;2.70;99.90
5850;DHT22;2951;47.712;9.400;2023-12-29T04:29:54;2.80;99.90
5850;DHT22;2951;47.712;9.400;2023-12-29T04:32:27;2.90;99.90
5850;DHT22;2951;47.712;9.400;2023-12-29T04:34:54;3.00;99.90
5850;DHT22;2951;47.712;9.400;2023-12-29T04:37:20;3.00;99.90
5850;DHT22;2951;47.712;9.400;2023-12-29T04:39:48;3.00;99.90
5850;DHT22;2951;47.712;9.400;2023-12-29T04:42:14;3.10;99.90
5850;DHT22;2951;47.712;9.400;2023-12-29T04:44:41;3.00;99.90
5850;DHT22;2951;47.712;9.400;2023-12-29T04:47:08;3.00;99.90
5850;DHT22;2951;47.712;9.400;2023-12-29T04:49:35;3.00;99.90
5850;DHT22;2951;47.712;9.400;2023-12-29T04:52:01;3.00;99.90
5850;DHT22;2951;47.712;9.400;2023-12-29T04:54:28;3.00;99.90
5850;DHT22;2951;47.712;9.400;2023-12-29T04:56:55;3.10;99.90
5850;DHT22;2951;47.712;9.400;2023-12-29T04:59:22;3.10;99.90
5850;DHT22;2951;47.712;9.400;2023-12-29T05:01:49;3.00;99.90
5850;DHT22;2951;47.712;9.400;2023-12-29T05:04:16;3.00;99.90
5850;DHT22;2951;47.712;9.400;2023-12-29T05:06:43;3.00;99.90
5850;DHT22;2951;47.712;9.400;2023-12-29T05:09:10;3.00;99.90
5850;DHT22;2951;47.712;9.400;2023-12-29T05:11:38;3.00;99.90
5850;DHT22;2951;47.712;9.400;2023-12-29T05:14:05;2.80;99.90
5850;DHT22;2951;47.712;9.400;2023-12-29T05:16:32;2.80;99.90
5850;DHT22;2951;47.712;9.400;2023-12-29T05:18:58;2.90;99.90
5850;DHT22;2951;47.712;9.400;2023-12-29T05:21:25;3.00;99.90
5850;DHT22;2951;47.712;9.400;2023-12-29T05:23:53;3.10;99.90
5850;DHT22;2951;47.712;9.400;2023-12-29T05:26:19;3.10;99.90
5850;DHT22;2951;47.712;9.400;2023-12-29T05:28:46;3.30;99.90
5850;DHT22;2951;47.712;9.400;2023-12-29T05:31:13;3.30;99.90
5850;DHT22;2951;47.712;9.400;2023-12-29T05:33:40;3.50;99.90
5850;DHT22;2951;47.712;9.400;2023-12-29T05:36:07;3.90;99.90
5850;DHT22;2951;47.712;9.400;2023-12-29T05:38:36;4.20;99.90
5850;DHT22;2951;47.712;9.400;2023-12-29T05:41:04;4.40;99.90
5850;DHT22;2951;47.712;9.400;2023-12-29T05:43:33;4.70;99.90
5850;DHT22;2951;47.712;9.400;2023-12-29T05:46:01;4.90;99.90
5850;DHT22;2951;47.712;9.400;2023-12-29T05:48:28;5.10;99.90
5850;DHT22;2951;47.712;9.400;2023-12-29T05:50:54;5.30;99.90
5850;DHT22;2951;47.712;9.400;2023-12-29T05:53:21;5.50;99.90
5850;DHT22;2951;47.712;9.400;2023-12-29T05:55:48;5.60;99.90
5850;DHT22;2951;47.712;9.400;2023-12-29T05:58:15;5.80;99.90
5850;DHT22;2951;47.712;9.400;2023-12-29T06:00:44;5.90;99.90
5850;DHT22;2951;47.712;9.400;2023-12-29T06:03:11;6.00;99.90
5850;DHT22;2951;47.712;9.400;2023-12-29T06:05:38;6.10;99.90
5850;DHT22;2951;47.712;9.400;2023-12-29T06:08:07;6.10;99.90
5850;DHT22;2951;47.712;9.400;2023-12-29T06:10:35;6.20;99.90
5850;DHT22;2951;47.712;9.400;2023-12-29T06:13:02;6.20;99.90
5850;DHT22;2951;47.712;9.400;2023-12-29T06:15:29;6.00;99.90
5850;DHT22;2951;47.712;9.400;2023-12-29T06:17:56;6.00;99.90
5850;DHT22;2951;47.712;9.400;2023-12-29T06:20:23;5.90;99.90
5850;DHT22;2951;47.712;9.400;2023-12-29T06:22:50;5.80;99.90
5850;DHT22;2951;47.712;9.400;2023-12-29T06:25:18;5.70;99.90
5850;DHT22;2951;47.712;9.400;2023-12-29T06:27:44;5.40;99.90
5850;DHT22;2951;47.712;9.400;2023-12-29T06:30:12;5.40;99.90
5850;DHT22;2951;47.712;9.400;2023-12-29T06:32:39;5.40;99.90
5850;DHT22;2951;47.712;9.400;2023-12-29T06:35:06;5.40;99.90
5850;DHT22;2951;47.712;9.400;2023-12-29T06:37:36;5.50;99.90
5850;DHT22;2951;47.712;9.400;2023-12-29T06:40:02;5.50;99.90
5850;DHT22;2951;47.712;9.400;2023-12-29T06:42:30;5.50;99.90
5850;DHT22;2951;47.712;9.400;2023-12-29T06:44:58;5.50;99.90
5850;DHT22;2951;47.712;9.400;2023-12-29T06:47:25;5.50;99.90
5850;DHT22;2951;47.712;9.400;2023-12-29T06:49:51;5.50;99.90
5850;DHT22;2951;47.712;9.400;2023-12-29T06:52:19;5.50;99.90
5850;DHT22;2951;47.712;9.400;2023-12-29T06:54:46;5.50;99.90
5850;DHT22;2951;47.712;9.400;2023-12-29T06:57:13;5.50;99.90
5850;DHT22;2951;47.712;9.400;2023-12-29T06:59:41;5.50;99.90
5850;DHT22;2951;47.712;9.400;2023-12-29T07:02:08;5.50;99.90
5850;DHT22;2951;47.712;9.400;2023-12-29T07:04:35;5.50;99.90
5850;DHT22;2951;47.712;9.400;2023-12-29T07:07:08;5.50;99.90
5850;DHT22;2951;47.712;9.400;2023-12-29T07:09:38;5.50;99.90
5850;DHT22;2951;47.712;9.400;2023-12-29T07:12:08;5.50;99.90
5850;DHT22;2951;47.712;9.400;2023-12-29T07:14:35;5.60;99.90
5850;DHT22;2951;47.712;9.400;2023-12-29T07:17:02;5.50;99.90
5850;DHT22;2951;47.712;9.400;2023-12-29T07:19:29;5.60;99.90
5850;DHT22;2951;47.712;9.400;2023-12-29T07:22:03;5.60;99.90
5850;DHT22;2951;47.712;9.400;2023-12-29T07:24:32;5.60;99.90
5850;DHT22;2951;47.712;9.400;2023-12-29T07:26:59;5.60;99.90
5850;DHT22;2951;47.712;9.400;2023-12-29T07:29:25;5.60;99.90
5850;DHT22;2951;47.712;9.400;2023-12-29T07:31:52;5.60;99.90
5850;DHT22;2951;47.712;9.400;2023-12-29T07:34:19;5.40;99.90
5850;DHT22;2951;47.712;9.400;2023-12-29T07:36:46;5.40;99.90
5850;DHT22;2951;47.712;9.400;2023-12-29T07:39:17;5.30;99.90
5850;DHT22;2951;47.712;9.400;2023-12-29T07:41:44;5.30;99.90
5850;DHT22;2951;47.712;9.400;2023-12-29T07:44:11;5.20;99.90
5850;DHT22;2951;47.712;9.400;2023-12-29T07:46:40;5.30;99.90
5850;DHT22;2951;47.712;9.400;2023-12-29T07:49:07;5.30;99.90
5850;DHT22;2951;47.712;9.400;2023-12-29T07:51:34;5.40;99.90
5850;DHT22;2951;47.712;9.400;2023-12-29T07:54:01;5.50;99.90
5850;DHT22;2951;47.712;9.400;2023-12-29T07:56:28;5.60;99.90
5850;DHT22;2951;47.712;9.400;2023-12-29T07:58:54;5.60;99.90
5850;DHT22;2951;47.712;9.400;2023-12-29T08:01:21;5.70;99.90
5850;DHT22;2951;47.712;9.400;2023-12-29T08:03:48;5.70;99.90
5850;DHT22;2951;47.712;9.400;2023-12-29T08:06:15;5.80;99.90
5850;DHT22;2951;47.712;9.400;2023-12-29T08:08:43;5.80;99.90
5850;DHT22;2951;47.712;9.400;2023-12-29T08:11:13;5.80;99.90
5850;DHT22;2951;47.712;9.400;2023-12-29T08:13:40;5.90;99.90
5850;DHT22;2951;47.712;9.400;2023-12-29T08:16:11;5.90;99.90
5850;DHT22;2951;47.712;9.400;2023-12-29T08:18:37;5.90;99.90
5850;DHT22;2951;47.712;9.400;2023-12-29T08:21:04;5.90;99.90
5850;DHT22;2951;47.712;9.400;2023-12-29T08:23:31;6.00;99.90
5850;DHT22;2951;47.712;9.400;2023-12-29T08:25:58;6.00;99.90
5850;DHT22;2951;47.712;9.400;2023-12-29T08:28:25;6.10;99.90
5850;DHT22;2951;47.712;9.400;2023-12-29T08:30:53;6.10;99.90
5850;DHT22;2951;47.712;9.400;2023-12-29T08:33:19;6.20;99.90
5850;DHT22;2951;47.712;9.400;2023-12-29T08:35:46;6.20;99.90
5850;DHT22;2951;47.712;9.400;2023-12-29T08:38:14;6.20;99.90
5850;DHT22;2951;47.712;9.400;2023-12-29T08:40:41;6.30;99.90
5850;DHT22;2951;47.712;9.400;2023-12-29T08:43:08;6.30;99.90
5850;DHT22;2951;47.712;9.400;2023-12-29T08:45:35;6.30;99.90
5850;DHT22;2951;47.712;9.400;2023-12-29T08:48:03;6.30;99.90
5850;DHT22;2951;47.712;9.400;2023-12-29T08:50:30;6.40;99.90
5850;DHT22;2951;47.712;9.400;2023-12-29T08:52:58;6.40;99.90
5850;DHT22;2951;47.712;9.400;2023-12-29T08:55:25;6.50;99.90
5850;DHT22;2951;47.712;9.400;2023-12-29T08:57:51;6.40;99.90
5850;DHT22;2951;47.712;9.400;2023-12-29T09:00:18;6.50;99.90
5850;DHT22;2951;47.712;9.400;2023-12-29T09:02:45;6.50;99.90
5850;DHT22;2951;47.712;9.400;2023-12-29T09:05:13;6.50;99.90
5850;DHT22;2951;47.712;9.400;2023-12-29T09:10:31;6.50;99.90
5850;DHT22;2951;47.712;9.400;2023-12-29T09:12:58;6.60;99.90
5850;DHT22;2951;47.712;9.400;2023-12-29T09:15:25;6.60;99.90
5850;DHT22;2951;47.712;9.400;2023-12-29T09:17:52;6.60;99.90
5850;DHT22;2951;47.712;9.400;2023-12-29T09:20:18;6.70;99.90
5850;DHT22;2951;47.712;9.400;2023-12-29T09:22:45;6.70;99.90
5850;DHT22;2951;47.712;9.400;2023-12-29T09:25:12;6.80;99.90
5850;DHT22;2951;47.712;9.400;2023-12-29T09:27:39;6.80;99.90
5850;DHT22;2951;47.712;9.400;2023-12-29T09:30:06;6.80;99.90
5850;DHT22;2951;47.712;9.400;2023-12-29T09:32:33;6.90;99.90
5850;DHT22;2951;47.712;9.400;2023-12-29T09:35:03;7.00;99.90
5850;DHT22;2951;47.712;9.400;2023-12-29T09:37:30;7.00;99.90
5850;DHT22;2951;47.712;9.400;2023-12-29T09:39:57;7.00;99.90
5850;DHT22;2951;47.712;9.400;2023-12-29T09:42:23;7.00;99.90
5850;DHT22;2951;47.712;9.400;2023-12-29T09:44:51;7.20;99.90
5850;DHT22;2951;47.712;9.400;2023-12-29T09:47:25;7.20;99.90
5850;DHT22;2951;47.712;9.400;2023-12-29T09:49:53;7.30;99.90
5850;DHT22;2951;47.712;9.400;2023-12-29T09:52:21;7.30;99.90
5850;DHT22;2951;47.712;9.400;2023-12-29T09:54:51;7.40;99.90
5850;DHT22;2951;47.712;9.400;2023-12-29T09:57:18;7.40;99.90
5850;DHT22;2951;47.712;9.400;2023-12-29T09:59:45;7.50;99.90
5850;DHT22;2951;47.712;9.400;2023-12-29T10:02:15;7.40;99.90
5850;DHT22;2951;47.712;9.400;2023-12-29T10:04:45;7.50;99.90
5850;DHT22;2951;47.712;9.400;2023-12-29T10:07:13;7.40;99.90
5850;DHT22;2951;47.712;9.400;2023-12-29T10:09:47;7.50;99.90
5850;DHT22;2951;47.712;9.400;2023-12-29T10:12:17;7.50;99.90
5850;DHT22;2951;47.712;9.400;2023-12-29T10:23:00;7.70;99.90
5850;DHT22;2951;47.712;9.400;2023-12-29T10:25:29;7.90;99.90
5850;DHT22;2951;47.712;9.400;2023-12-29T10:27:57;7.90;99.90
5850;DHT22;2951;47.712;9.400;2023-12-29T10:30:24;8.00;99.90
5850;DHT22;2951;47.712;9.400;2023-12-29T10:32:57;8.20;99.90
5850;DHT22;2951;47.712;9.400;2023-12-29T10:35:25;8.10;99.90
5850;DHT22;2951;47.712;9.400;2023-12-29T10:40:43;8.30;99.90
5850;DHT22;2951;47.712;9.400;2023-12-29T10:43:10;8.40;99.90
5850;DHT22;2951;47.712;9.400;2023-12-29T10:45:37;8.70;99.90
5850;DHT22;2951;47.712;9.400;2023-12-29T10:48:25;8.80;99.90
5850;DHT22;2951;47.712;9.400;2023-12-29T10:50:51;8.80;99.90
5850;DHT22;2951;47.712;9.400;2023-12-29T10:53:18;8.90;99.90
5850;DHT22;2951;47.712;9.400;2023-12-29T10:55:45;9.10;99.90
5850;DHT22;2951;47.712;9.400;2023-12-29T10:58:12;9.10;99.90
5850;DHT22;2951;47.712;9.400;2023-12-29T11:00:42;9.20;99.90
5850;DHT22;2951;47.712;9.400;2023-12-29T11:03:10;9.40;99.90
5850;DHT22;2951;47.712;9.400;2023-12-29T11:05:41;9.40;99.90
5850;DHT22;2951;47.712;9.400;2023-12-29T11:08:20;9.30;99.90
5850;DHT22;2951;47.712;9.400;2023-12-29T11:10:48;9.40;99.90
5850;DHT22;2951;47.712;9.400;2023-12-29T11:13:20;9.30;99.90
5850;DHT22;2951;47.712;9.400;2023-12-29T11:15:47;9.40;99.90
5850;DHT22;2951;47.712;9.400;2023-12-29T11:18:16;9.40;99.90
5850;DHT22;2951;47.712;9.400;2023-12-29T11:20:44;9.50;99.90
5850;DHT22;2951;47.712;9.400;2023-12-29T11:23:12;9.50;99.90
5850;DHT22;2951;47.712;9.400;2023-12-29T11:25:43;9.50;99.90
5850;DHT22;2951;47.712;9.400;2023-12-29T11:28:11;9.50;99.90
5850;DHT22;2951;47.712;9.400;2023-12-29T11:30:38;9.60;99.90
5850;DHT22;2951;47.712;9.400;2023-12-29T11:33:12;9.60;99.90
5850;DHT22;2951;47.712;9.400;2023-12-29T11:35:50;9.60;99.90
5850;DHT22;2951;47.712;9.400;2023-12-29T11:43:34;9.80;99.90
5850;DHT22;2951;47.712;9.400;2023-12-29T11:46:02;10.00;99.90
5850;DHT22;2951;47.712;9.400;2023-12-29T11:51:35;10.20;99.90
5850;DHT22;2951;47.712;9.400;2023-12-29T11:54:02;10.30;99.90
5850;DHT22;2951;47.712;9.400;2023-12-29T11:56:30;10.30;99.90
5850;DHT22;2951;47.712;9.400;2023-12-29T11:59:11;10.20;99.90
5850;DHT22;2951;47.712;9.400;2023-12-29T12:01:38;10.20;99.90
5850;DHT22;2951;47.712;9.400;2023-12-29T12:04:28;10.20;99.90
5850;DHT22;2951;47.712;9.400;2023-12-29T12:09:48;10.20;99.90
5850;DHT22;2951;47.712;9.400;2023-12-29T12:12:38;10.30;99.90
5850;DHT22;2951;47.712;9.400;2023-12-29T12:18:10;10.30;99.90
5850;DHT22;2951;47.712;9.400;2023-12-29T12:20:38;10.30;99.90
5850;DHT22;2951;47.712;9.400;2023-12-29T12:23:16;10.30;99.90
5850;DHT22;2951;47.712;9.400;2023-12-29T12:25:46;10.30;99.90
5850;DHT22;2951;47.712;9.400;2023-12-29T12:28:13;10.40;99.90
5850;DHT22;2951;47.712;9.400;2023-12-29T12:30:40;10.40;99.90
5850;DHT22;2951;47.712;9.400;2023-12-29T12:33:07;10.30;99.90
5850;DHT22;2951;47.712;9.400;2023-12-29T12:35:38;10.40;99.90
5850;DHT22;2951;47.712;9.400;2023-12-29T12:38:08;10.40;99.90
5850;DHT22;2951;47.712;9.400;2023-12-29T12:40:39;10.40;99.90
5850;DHT22;2951;47.712;9.400;2023-12-29T12:43:06;10.50;99.90
5850;DHT22;2951;47.712;9.400;2023-12-29T12:45:34;10.40;99.90
5850;DHT22;2951;47.712;9.400;2023-12-29T12:50:47;10.50;99.90
5850;DHT22;2951;47.712;9.400;2023-12-29T12:53:14;10.60;99.90
5850;DHT22;2951;47.712;9.400;2023-12-29T12:55:47;10.60;99.90
5850;DHT22;2951;47.712;9.400;2023-12-29T12:58:15;10.60;99.90
5850;DHT22;2951;47.712;9.400;2023-12-29T13:00:44;10.60;99.90
5850;DHT22;2951;47.712;9.400;2023-12-29T13:03:13;10.70;99.90
5850;DHT22;2951;47.712;9.400;2023-12-29T13:05:42;10.70;99.90
5850;DHT22;2951;47.712;9.400;2023-12-29T13:08:09;10.70;99.90
5850;DHT22;2951;47.712;9.400;2023-12-29T13:10:40;10.70;99.90
5850;DHT22;2951;47.712;9.400;2023-12-29T13:13:07;10.80;99.90
5850;DHT22;2951;47.712;9.400;2023-12-29T13:15:34;10.80;99.90
5850;DHT22;2951;47.712;9.400;2023-12-29T13:18:01;10.90;99.90
5850;DHT22;2951;47.712;9.400;2023-12-29T13:20:28;10.80;99.90
5850;DHT22;2951;47.712;9.400;2023-12-29T13:22:57;10.80;99.90
5850;DHT22;2951;47.712;9.400;2023-12-29T13:25:24;10.80;99.90
5850;DHT22;2951;47.712;9.400;2023-12-29T13:27:52;10.90;99.90
5850;DHT22;2951;47.712;9.400;2023-12-29T13:30:19;10.90;99.90
5850;DHT22;2951;47.712;9.400;2023-12-29T13:32:47;10.90;99.90
5850;DHT22;2951;47.712;9.400;2023-12-29T13:35:20;10.90;99.90
5850;DHT22;2951;47.712;9.400;2023-12-29T13:40:35;10.90;99.90
5850;DHT22;2951;47.712;9.400;2023-12-29T13:43:04;10.90;99.90
5850;DHT22;2951;47.712;9.400;2023-12-29T13:45:34;10.90;99.90
5850;DHT22;2951;47.712;9.400;2023-12-29T13:48:01;10.90;99.90
5850;DHT22;2951;47.712;9.400;2023-12-29T13:50:29;10.90;99.90
5850;DHT22;2951;47.712;9.400;2023-12-29T13:52:56;10.80;99.90
5850;DHT22;2951;47.712;9.400;2023-12-29T13:55:23;10.80;99.90
5850;DHT22;2951;47.712;9.400;2023-12-29T13:57:52;10.70;99.90
5850;DHT22;2951;47.712;9.400;2023-12-29T14:00:23;10.70;99.90
5850;DHT22;2951;47.712;9.400;2023-12-29T14:05:27;10.70;99.90
5850;DHT22;2951;47.712;9.400;2023-12-29T14:08:05;10.80;99.90
5850;DHT22;2951;47.712;9.400;2023-12-29T14:11:09;10.70;99.90
5850;DHT22;2951;47.712;9.400;2023-12-29T14:13:42;10.70;99.90
5850;DHT22;2951;47.712;9.400;2023-12-29T14:16:10;10.70;99.90
5850;DHT22;2951;47.712;9.400;2023-12-29T14:21:29;10.70;99.90
5850;DHT22;2951;47.712;9.400;2023-12-29T14:26:32;10.60;99.90
5850;DHT22;2951;47.712;9.400;2023-12-29T14:29:02;10.50;99.90
5850;DHT22;2951;47.712;9.400;2023-12-29T14:31:31;10.50;99.90
5850;DHT22;2951;47.712;9.400;2023-12-29T14:34:01;10.60;99.90
5850;DHT22;2951;47.712;9.400;2023-12-29T14:36:28;10.70;99.90
5850;DHT22;2951;47.712;9.400;2023-12-29T14:38:55;10.80;99.90
5850;DHT22;2951;47.712;9.400;2023-12-29T14:41:22;10.80;99.90
5850;DHT22;2951;47.712;9.400;2023-12-29T14:43:49;10.80;99.90
5850;DHT22;2951;47.712;9.400;2023-12-29T14:46:16;10.80;99.90
5850;DHT22;2951;47.712;9.400;2023-12-29T14:48:43;10.80;99.90
5850;DHT22;2951;47.712;9.400;2023-12-29T14:51:10;10.60;99.90
5850;DHT22;2951;47.712;9.400;2023-12-29T14:53:37;10.50;99.90
5850;DHT22;2951;47.712;9.400;2023-12-29T14:56:04;10.40;99.90
5850;DHT22;2951;47.712;9.400;2023-12-29T14:58:31;10.30;99.90
5850;DHT22;2951;47.712;9.400;2023-12-29T15:00:58;10.20;99.90
5850;DHT22;2951;47.712;9.400;2023-12-29T15:03:25;10.10;99.90
5850;DHT22;2951;47.712;9.400;2023-12-29T15:05:52;10.10;99.90
5850;DHT22;2951;47.712;9.400;2023-12-29T15:08:23;10.00;99.90
5850;DHT22;2951;47.712;9.400;2023-12-29T15:10:54;10.00;99.90
5850;DHT22;2951;47.712;9.400;2023-12-29T15:13:21;9.90;99.90
5850;DHT22;2951;47.712;9.400;2023-12-29T15:15:48;9.90;99.90
5850;DHT22;2951;47.712;9.400;2023-12-29T15:18:15;9.80;99.90
5850;DHT22;2951;47.712;9.400;2023-12-29T15:20:43;9.80;99.90
5850;DHT22;2951;47.712;9.400;2023-12-29T15:23:10;9.70;99.90
5850;DHT22;2951;47.712;9.400;2023-12-29T15:25:38;9.70;99.90
5850;DHT22;2951;47.712;9.400;2023-12-29T15:28:05;9.60;99.90
5850;DHT22;2951;47.712;9.400;2023-12-29T15:30:32;9.60;99.90
5850;DHT22;2951;47.712;9.400;2023-12-29T15:32:58;9.50;99.90
5850;DHT22;2951;47.712;9.400;2023-12-29T15:35:25;9.40;99.90
5850;DHT22;2951;47.712;9.400;2023-12-29T15:37:53;9.40;99.90
5850;DHT22;2951;47.712;9.400;2023-12-29T15:40:21;9.40;99.90
5850;DHT22;2951;47.712;9.400;2023-12-29T15:42:48;9.30;99.90
5850;DHT22;2951;47.712;9.400;2023-12-29T15:45:16;9.20;99.90
5850;DHT22;2951;47.712;9.400;2023-12-29T15:47:45;9.20;99.90
5850;DHT22;2951;47.712;9.400;2023-12-29T15:50:12;9.20;99.90
5850;DHT22;2951;47.712;9.400;2023-12-29T15:52:39;9.10;99.90
5850;DHT22;2951;47.712;9.400;2023-12-29T15:55:07;9.00;99.90
5850;DHT22;2951;47.712;9.400;2023-12-29T15:57:34;8.90;99.90
5850;DHT22;2951;47.712;9.400;2023-12-29T16:00:01;8.90;99.90
5850;DHT22;2951;47.712;9.400;2023-12-29T16:02:28;8.80;99.90
5850;DHT22;2951;47.712;9.400;2023-12-29T16:04:55;8.90;99.90
5850;DHT22;2951;47.712;9.400;2023-12-29T16:07:22;8.90;99.90
5850;DHT22;2951;47.712;9.400;2023-12-29T16:09:48;8.90;99.90
5850;DHT22;2951;47.712;9.400;2023-12-29T16:12:17;9.00;99.90
5850;DHT22;2951;47.712;9.400;2023-12-29T16:14:44;9.00;99.90
5850;DHT22;2951;47.712;9.400;2023-12-29T16:17:13;9.00;99.90
5850;DHT22;2951;47.712;9.400;2023-12-29T16:19:40;8.90;99.90
5850;DHT22;2951;47.712;9.400;2023-12-29T16:22:07;8.90;99.90
5850;DHT22;2951;47.712;9.400;2023-12-29T16:24:37;8.90;99.90
5850;DHT22;2951;47.712;9.400;2023-12-29T16:27:03;8.80;99.90
5850;DHT22;2951;47.712;9.400;2023-12-29T16:29:30;8.80;99.90
5850;DHT22;2951;47.712;9.400;2023-12-29T16:31:58;8.80;99.90
5850;DHT22;2951;47.712;9.400;2023-12-29T16:34:25;8.70;99.90
5850;DHT22;2951;47.712;9.400;2023-12-29T16:36:58;8.60;99.90
5850;DHT22;2951;47.712;9.400;2023-12-29T16:39:26;8.60;99.90
5850;DHT22;2951;47.712;9.400;2023-12-29T16:41:53;8.70;99.90
5850;DHT22;2951;47.712;9.400;2023-12-29T16:44:20;8.70;99.90
5850;DHT22;2951;47.712;9.400;2023-12-29T16:46:47;8.70;99.90
5850;DHT22;2951;47.712;9.400;2023-12-29T16:49:13;8.70;99.90
5850;DHT22;2951;47.712;9.400;2023-12-29T16:51:54;8.70;99.90
5850;DHT22;2951;47.712;9.400;2023-12-29T16:54:22;8.80;99.90
5850;DHT22;2951;47.712;9.400;2023-12-29T16:56:49;8.80;99.90
5850;DHT22;2951;47.712;9.400;2023-12-29T16:59:16;8.80;99.90
5850;DHT22;2951;47.712;9.400;2023-12-29T17:01:43;8.70;99.90
5850;DHT22;2951;47.712;9.400;2023-12-29T17:04:10;8.70;99.90
5850;DHT22;2951;47.712;9.400;2023-12-29T17:06:40;8.70;99.90